WetterOnline ( https://www.wetteronline.de )

Wetter aktuell Grapen-Stieten

Aktuelles Wetter: Schwerin (68m)

6-stündlich | Neueste Meldungen
Ortszeit Temperatur Wetter
Di, 24.11. 19:00 6.6° C bewölkt
Di, 24.11. 13:00 6.9° C bedeckt
Di, 24.11. 7:00 2.7° C wolkig
Di, 24.11. 1:00 3.9° C bedeckt
Mo, 23.11. 19:00 5.7° C bedeckt
Mo, 23.11. 13:00 8.0° C wolkenlos
Mo, 23.11. 7:00 4.4° C bewölkt
Mo, 23.11. 1:00 4.2° C leicht bewölkt
Ortszeit Temperatur Wetter
Di, 24.11. 22:30 4.4° C wolkig
Di, 24.11. 22:20 4.4° C wolkig
Di, 24.11. 22:10 4.4° C wolkig
Di, 24.11. 22:00 4.7° C wolkig
Di, 24.11. 21:50 4.7° C wolkig
Di, 24.11. 21:40 4.8° C wolkig
Di, 24.11. 21:30 5.0° C wolkig
Di, 24.11. 21:00 5.3° C wolkig
Di, 24.11. 20:30 5.8° C wolkig
Di, 24.11. 20:00 6.1° C wolkig
Di, 24.11. 19:30 6.3° C bewölkt
Ortszeit Relative Feuchte Sichtweite
Di, 24.11. 19:00 88% 28 km
Di, 24.11. 13:00 86% 20 km
Di, 24.11. 7:00 92% 17 km
Di, 24.11. 1:00 93% 30 km
Mo, 23.11. 19:00 89% 35 km
Mo, 23.11. 13:00 78% 60 km
Mo, 23.11. 7:00 93% 30 km
Mo, 23.11. 1:00 93% 30 km
Ortszeit Relative Feuchte Sichtweite
Di, 24.11. 22:30 95% -
Di, 24.11. 22:20 95% -
Di, 24.11. 22:10 95% -
Di, 24.11. 22:00 95% 15 km
Di, 24.11. 21:50 95% -
Di, 24.11. 21:40 95% -
Di, 24.11. 21:30 93% 16 km
Di, 24.11. 21:00 93% 19 km
Di, 24.11. 20:30 91% 23 km
Di, 24.11. 20:00 89% 25 km
Di, 24.11. 19:30 88% 28 km
Ortszeit Niederschlagsmenge Niederschlagsart
Di, 24.11. 19:00 0.0 l/m2 in 12 Std. -
Di, 24.11. 13:00 0.0 l/m2 in 6 Std. -
Di, 24.11. 7:00 0.0 l/m2 in 12 Std. -
Di, 24.11. 1:00 0.0 l/m2 in 6 Std. -
Mo, 23.11. 19:00 0.1 l/m2 in 12 Std. -
Mo, 23.11. 13:00 0.1 l/m2 in 6 Std. Regen
Mo, 23.11. 7:00 0.1 l/m2 in 12 Std. Regen
Mo, 23.11. 1:00 0.1 l/m2 in 6 Std. Regen
Ortszeit Niederschlagsmenge Niederschlagsart
Di, 24.11. 22:30 0.0 l/m2 in 1 Std. -
Di, 24.11. 22:20 keine Meldung -
Di, 24.11. 22:10 keine Meldung -
Di, 24.11. 22:00 0.0 l/m2 in 1 Std. -
Di, 24.11. 21:50 keine Meldung -
Di, 24.11. 21:40 keine Meldung -
Di, 24.11. 21:30 0.0 l/m2 in 1 Std. -
Di, 24.11. 21:00 0.0 l/m2 in 1 Std. -
Di, 24.11. 20:30 0.0 l/m2 in 1 Std. -
Di, 24.11. 20:00 0.0 l/m2 in 1 Std. -
Di, 24.11. 19:30 0.0 l/m2 in 1 Std. -
Ortszeit Stärke Spitze Richtung
km/h Bft. km/h Grad Sektor
Di, 24.11. 19:00 17 3 33 200° S
Di, 24.11. 13:00 22 4 36 220° SW
Di, 24.11. 7:00 19 3 30 200° S
Di, 24.11. 1:00 15 3 24 200° S
Mo, 23.11. 19:00 15 3 35 230° SW
Mo, 23.11. 13:00 22 4 40 260° W
Mo, 23.11. 7:00 19 3 33 240° SW
Mo, 23.11. 1:00 18 3 29 230° SW
Ortszeit Stärke Spitze Richtung
km/h Bft. km/h Grad Sektor
Di, 24.11. 22:30 14 3 18 200° S
Di, 24.11. 22:20 14 3 - 200° S
Di, 24.11. 22:10 14 3 - 200° S
Di, 24.11. 22:00 13 3 20 200° S
Di, 24.11. 21:50 13 3 - 200° S
Di, 24.11. 21:40 14 3 - 200° S
Di, 24.11. 21:30 14 3 22 200° S
Di, 24.11. 21:00 13 3 24 190° S
Di, 24.11. 20:30 14 3 25 210° SW
Di, 24.11. 20:00 14 3 25 200° S
Di, 24.11. 19:30 17 3 24 210° SW
Ortszeit Untergrenze Bedeckung Gattung
total tief tief mittel hoch
Di, 24.11. 19:00 1170 m 7/8 7/8 - - -
Di, 24.11. 13:00 330 m 8/8 8/8 - - -
Di, 24.11. 7:00 1230 m 8/8 3/8 - - -
Di, 24.11. 1:00 3900 m 8/8 8/8 - - -
Mo, 23.11. 19:00 5100 m 8/8 8/8 - - -
Mo, 23.11. 13:00 540 m 0/8 0/8 - - -
Mo, 23.11. 7:00 840 m 7/8 7/8 - - -
Mo, 23.11. 1:00 3900 m 2/8 2/8 - - -
Ortszeit Bedeckungsgrad in Achtel und Wolkenuntergrenze
Di, 24.11. 22:30 5(8400m) 7(9000m) 8(9000m)
Di, 24.11. 22:20 5(8400m) 7(9000m) 8(9000m)
Di, 24.11. 22:10 3(8400m) 7(9000m) 8(9000m)
Di, 24.11. 22:00 3(8400m) 8(9000m) 8(9000m)
Di, 24.11. 21:50 3(8400m) 8(9000m) 8(9000m)
Di, 24.11. 21:40 7(8400m) 8(9000m) 8(9000m)
Di, 24.11. 21:30 3(7200m) 8(8400m) 8(9000m)
Di, 24.11. 21:00 2(7500m) 8(8400m) 8(9000m)
Di, 24.11. 20:30 8(7800m) 8(9000m)
Di, 24.11. 20:00 3(1230m) 8(7500m) 8(8400m)
Di, 24.11. 19:30 7(1230m) 7(7500m) 7(7800m)
Ortszeit Luftdruck NN (hPa) Tendenz (hPa in 3 Std.)
Di, 24.11. 19:00 1021 - 0,3
Di, 24.11. 13:00 1022 - 1,0
Di, 24.11. 7:00 1024 - 0,6
Di, 24.11. 1:00 1026 - 0,6
Mo, 23.11. 19:00 1026 + 0,9
Mo, 23.11. 13:00 1024 + 1,0
Mo, 23.11. 7:00 1021 + 0,5
Mo, 23.11. 1:00 1021 - 0,2
Ortszeit Luftdruck NN (hPa) Tendenz (hPa in 3 Std.)
Di, 24.11. 22:30 1021 - 0,8
Di, 24.11. 22:20 1021 keine Meldung
Di, 24.11. 22:10 1021 keine Meldung
Di, 24.11. 22:00 1021 - 0,5
Di, 24.11. 21:50 1021 keine Meldung
Di, 24.11. 21:40 1021 keine Meldung
Di, 24.11. 21:30 1021 - 0,6
Di, 24.11. 21:00 1021 - 0,3
Di, 24.11. 20:30 1021 - 0,2
Di, 24.11. 20:00 1021 - 0,3
Di, 24.11. 19:30 1021 - 0,1
Ortszeit Schneehöhe (cm)
Di, 24.11. 19:00 0
Di, 24.11. 13:00 0
Di, 24.11. 7:00 0
Di, 24.11. 1:00 0
Mo, 23.11. 19:00 0
Mo, 23.11. 13:00 0
Mo, 23.11. 7:00 0
Mo, 23.11. 1:00 0
Ortszeit Schneehöhe (cm)
Di, 24.11. 22:30 0
Di, 24.11. 22:20 0
Di, 24.11. 22:10 0
Di, 24.11. 22:00 0
Di, 24.11. 21:50 0
Di, 24.11. 21:40 0
Di, 24.11. 21:30 0
Di, 24.11. 21:00 0
Di, 24.11. 20:30 0
Di, 24.11. 20:00 0
Di, 24.11. 19:30 0
Link zu dieser Seite / Seite empfehlen

Das Wetter in ...